Bf Caroda — V2CV5 — position and weather

sailwx.info

Track history (hours):
 
Tides and Currents Weather Stations Pressure Air Temp Water Temp Dewpoint Dewpoint Depression Visibility Wind Speed Wind Dir Waves Ship Positions

Bf Caroda

Last reported at 2015-May-27 19:33 UTC. Time now 2015-May-27 20:04 UTC.
Position N 44°06' E 009°18'.

Length 134 m; draft 7.1 m.

Type: Ship (hazmat cat A). MMSI: 304678000.

Date/timePositionNaut miles runAvg speedWind from/ knotsBaromVisibWave heightAir tempDewpointWater temp
2015-May-27 19:33N 44°06' E 009°18'1716.6
2015-May-27 18:33N 43°57' E 009°37'1312.7
2015-May-27 17:33N 44°04' E 009°52'3 2.9
2015-May-27 16:33N 44°06' E 009°51'0 0.0
2015-May-27 15:32N 44°06' E 009°51'0 0.0
2015-May-27 14:32N 44°06' E 009°51'0 0.0
2015-May-27 13:31N 44°06' E 009°51'0 0.0
2015-May-27 12:32N 44°06' E 009°51'0 0.0
2015-May-27 11:31N 44°06' E 009°51'0 0.0
2015-May-27 10:31N 44°06' E 009°51'0 0.0
2015-May-27 09:31N 44°06' E 009°51'0 0.0
2015-May-27 08:33N 44°06' E 009°51'0 0.0
2015-May-27 07:33N 44°06' E 009°51'0 0.0
2015-May-27 06:32N 44°06' E 009°51'0 0.0
2015-May-27 05:34N 44°06' E 009°51'0 0.0
2015-May-27 04:34N 44°06' E 009°51'6 5.9
2015-May-27 03:33N 44°01' E 009°55'10 9.7
2015-May-27 02:34N 43°52' E 009°59'1615.8
2015-May-27 01:34N 43°40' E 009°44'1616.0
2015-May-27 00:34N 43°34' E 009°24'1616.4
2015-May-26 23:34N 43°28' E 009°03'1716.5
2015-May-26 22:33N 43°22' E 008°42'1616.1
2015-May-26 21:33N 43°17' E 008°21'1815.9
2015-May-26 20:24N 43°10' E 007°57'1416.0
2015-May-26 19:34N 43°06' E 007°40'10214.6
2015-May-26 12:33N 43°05' E 005°20'1313.2
2015-May-26 11:34N 43°17' E 005°11'7 7.3
2015-May-26 10:32N 43°21' E 005°20'0 0.0
2015-May-26 09:32N 43°21' E 005°20'0 0.0
2015-May-26 08:31N 43°21' E 005°20'0 0.0
2015-May-26 07:31N 43°21' E 005°20'0 0.0
2015-May-26 06:33N 43°21' E 005°20'0 0.0
2015-May-26 05:33N 43°21' E 005°20'0 0.0
2015-May-26 04:29N 43°21' E 005°20'0 0.0
2015-May-26 03:29N 43°21' E 005°20'0 0.0
2015-May-26 02:28N 43°21' E 005°20'0 0.0
2015-May-26 01:31N 43°21' E 005°20'0 0.0
2015-May-26 00:31N 43°21' E 005°20'0 0.0
2015-May-25 23:33N 43°21' E 005°20'0 0.0
2015-May-25 22:33N 43°21' E 005°20'0 0.0
2015-May-25 21:29N 43°21' E 005°20'0 0.0
2015-May-25 20:32N 43°21' E 005°20'0 0.0
2015-May-25 19:28N 43°21' E 005°20'0 0.0
2015-May-25 18:31N 43°21' E 005°20'0 0.0
2015-May-25 17:31N 43°21' E 005°20'0 0.0
2015-May-25 16:33N 43°21' E 005°20'0 0.0
2015-May-25 15:30N 43°21' E 005°20'0 0.0
2015-May-25 14:32N 43°21' E 005°20'0 0.0
2015-May-25 13:32N 43°21' E 005°20'0 0.0
2015-May-25 12:33N 43°21' E 005°20'8 7.5
2015-May-25 11:33N 43°16' E 005°12'4514.1
2015-May-25 08:22N 42°40' E 004°36'2813.9
2015-May-25 06:23N 42°18' E 004°13'6913.8
2015-May-25 01:22N 41°24' E 003°15'1214.0
2015-May-25 00:32N 41°15' E 003°05'1414.5
2015-May-24 23:33N 41°03' E 002°54'1514.6
2015-May-24 22:33N 40°52' E 002°42'1514.7
2015-May-24 21:33N 40°40' E 002°31'1514.9
2015-May-24 20:33N 40°29' E 002°18'1515.0
2015-May-24 19:33N 40°17' E 002°06'1515.4
2015-May-24 18:33N 40°05' E 001°53'1515.2
2015-May-24 17:33N 39°52' E 001°42'1715.1
2015-May-24 16:24N 39°37' E 001°31'1614.9
2015-May-24 15:21N 39°24' E 001°20'1614.8
2015-May-24 14:15N 39°10' E 001°09'2614.7
2015-May-24 12:27N 38°47' E 000°52'257 6.6
2015-May-22 21:20N 35°06' W 001°52'0 0.0
2015-May-22 13:25N 35°06' W 001°52'  
2015-May-20 05:27N 35°55' W 005°05'1617.9
2015-May-20 04:33N 35°57' W 005°25'4 0.2
2015-May-19 11:07N 35°56' W 005°29'611.2
2015-May-19 10:34N 36°00' W 005°23'11513.8
2015-May-19 02:13N 36°19' W 003°02'1015.0
2015-May-19 01:33N 36°21' W 002°50'1514.9
2015-May-19 00:33N 36°23' W 002°32'1714.7
2015-May-18 23:26N 36°25' W 002°11'2814.8
2015-May-18 21:33N 36°44' W 001°46'4514.8
2015-May-18 18:29N 37°14' W 001°03'1515.0
2015-May-18 17:31N 37°24' W 000°49'1615.2
2015-May-18 16:29N 37°34' W 000°34'1414.9
2015-May-18 15:33N 37°45' W 000°24'1615.3
2015-May-18 14:30N 37°59' W 000°13'143 8.4
2015-May-17 21:33N 40°13' E 000°48'1913.7
2015-May-17 20:08N 40°26' E 001°08'  
Track history (hours):
 
Tides and Currents Weather Stations Pressure Air Temp Water Temp Dewpoint Dewpoint Depression Visibility Wind Speed Wind Dir Waves Ship Positions

Bf Caroda

Last reported at 2015-May-27 19:33 UTC. Time now 2015-May-27 20:04 UTC.
Position N 44°06' E 009°18'.

Length 134 m; draft 7.1 m.

Type: Ship (hazmat cat A). MMSI: 304678000.

Date/timePositionNaut miles runAvg speedWind from/ knotsBaromVisibWave heightAir tempDewpointWater temp
2015-May-27 19:33N 44°06' E 009°18'1716.6
2015-May-27 18:33N 43°57' E 009°37'1312.7
2015-May-27 17:33N 44°04' E 009°52'3 2.9
2015-May-27 16:33N 44°06' E 009°51'0 0.0
2015-May-27 15:32N 44°06' E 009°51'0 0.0
2015-May-27 14:32N 44°06' E 009°51'0 0.0
2015-May-27 13:31N 44°06' E 009°51'0 0.0
2015-May-27 12:32N 44°06' E 009°51'0 0.0
2015-May-27 11:31N 44°06' E 009°51'0 0.0
2015-May-27 10:31N 44°06' E 009°51'0 0.0
2015-May-27 09:31N 44°06' E 009°51'0 0.0
2015-May-27 08:33N 44°06' E 009°51'0 0.0
2015-May-27 07:33N 44°06' E 009°51'0 0.0
2015-May-27 06:32N 44°06' E 009°51'0 0.0
2015-May-27 05:34N 44°06' E 009°51'0 0.0
2015-May-27 04:34N 44°06' E 009°51'6 5.9
2015-May-27 03:33N 44°01' E 009°55'10 9.7
2015-May-27 02:34N 43°52' E 009°59'1615.8
2015-May-27 01:34N 43°40' E 009°44'1616.0
2015-May-27 00:34N 43°34' E 009°24'1616.4
2015-May-26 23:34N 43°28' E 009°03'1716.5
2015-May-26 22:33N 43°22' E 008°42'1616.1
2015-May-26 21:33N 43°17' E 008°21'1815.9
2015-May-26 20:24N 43°10' E 007°57'1416.0
2015-May-26 19:34N 43°06' E 007°40'10214.6
2015-May-26 12:33N 43°05' E 005°20'1313.2
2015-May-26 11:34N 43°17' E 005°11'7 7.3
2015-May-26 10:32N 43°21' E 005°20'0 0.0
2015-May-26 09:32N 43°21' E 005°20'0 0.0
2015-May-26 08:31N 43°21' E 005°20'0 0.0
2015-May-26 07:31N 43°21' E 005°20'0 0.0
2015-May-26 06:33N 43°21' E 005°20'0 0.0
2015-May-26 05:33N 43°21' E 005°20'0 0.0
2015-May-26 04:29N 43°21' E 005°20'0 0.0
2015-May-26 03:29N 43°21' E 005°20'0 0.0
2015-May-26 02:28N 43°21' E 005°20'0 0.0
2015-May-26 01:31N 43°21' E 005°20'0 0.0
2015-May-26 00:31N 43°21' E 005°20'0 0.0
2015-May-25 23:33N 43°21' E 005°20'0 0.0
2015-May-25 22:33N 43°21' E 005°20'0 0.0
2015-May-25 21:29N 43°21' E 005°20'0 0.0
2015-May-25 20:32N 43°21' E 005°20'0 0.0
2015-May-25 19:28N 43°21' E 005°20'0 0.0
2015-May-25 18:31N 43°21' E 005°20'0 0.0
2015-May-25 17:31N 43°21' E 005°20'0 0.0
2015-May-25 16:33N 43°21' E 005°20'0 0.0
2015-May-25 15:30N 43°21' E 005°20'0 0.0
2015-May-25 14:32N 43°21' E 005°20'0 0.0
2015-May-25 13:32N 43°21' E 005°20'0 0.0
2015-May-25 12:33N 43°21' E 005°20'8 7.5
2015-May-25 11:33N 43°16' E 005°12'4514.1
2015-May-25 08:22N 42°40' E 004°36'2813.9
2015-May-25 06:23N 42°18' E 004°13'6913.8
2015-May-25 01:22N 41°24' E 003°15'1214.0
2015-May-25 00:32N 41°15' E 003°05'1414.5
2015-May-24 23:33N 41°03' E 002°54'1514.6
2015-May-24 22:33N 40°52' E 002°42'1514.7
2015-May-24 21:33N 40°40' E 002°31'1514.9
2015-May-24 20:33N 40°29' E 002°18'1515.0
2015-May-24 19:33N 40°17' E 002°06'1515.4
2015-May-24 18:33N 40°05' E 001°53'1515.2
2015-May-24 17:33N 39°52' E 001°42'1715.1
2015-May-24 16:24N 39°37' E 001°31'1614.9
2015-May-24 15:21N 39°24' E 001°20'1614.8
2015-May-24 14:15N 39°10' E 001°09'2614.7
2015-May-24 12:27N 38°47' E 000°52'257 6.6
2015-May-22 21:20N 35°06' W 001°52'0 0.0
2015-May-22 13:25N 35°06' W 001°52'  
2015-May-20 05:27N 35°55' W 005°05'1617.9
2015-May-20 04:33N 35°57' W 005°25'4 0.2
2015-May-19 11:07N 35°56' W 005°29'611.2
2015-May-19 10:34N 36°00' W 005°23'11513.8
2015-May-19 02:13N 36°19' W 003°02'1015.0
2015-May-19 01:33N 36°21' W 002°50'1514.9
2015-May-19 00:33N 36°23' W 002°32'1714.7
2015-May-18 23:26N 36°25' W 002°11'2814.8
2015-May-18 21:33N 36°44' W 001°46'4514.8
2015-May-18 18:29N 37°14' W 001°03'1515.0
2015-May-18 17:31N 37°24' W 000°49'1615.2
2015-May-18 16:29N 37°34' W 000°34'1414.9
2015-May-18 15:33N 37°45' W 000°24'1615.3
2015-May-18 14:30N 37°59' W 000°13'143 8.4
2015-May-17 21:33N 40°13' E 000°48'1913.7
2015-May-17 20:08N 40°26' E 001°08'  

Dump ship's entire track history